createdAt,value
2017-12-01T00:01:08.560Z,100395.89
2017-12-01T00:03:34.347Z,100401.90
2017-12-01T00:06:00.148Z,100397.66
2017-12-01T00:08:25.959Z,100405.34
2017-12-01T00:10:51.751Z,100401.59
2017-12-01T00:13:17.543Z,100404.45
2017-12-01T00:15:43.345Z,100403.31
2017-12-01T00:18:09.132Z,100403.39
2017-12-01T00:20:34.950Z,100402.06
2017-12-01T00:23:00.734Z,100403.15
2017-12-01T00:25:26.542Z,100399.26
2017-12-01T00:27:52.367Z,100397.44
2017-12-01T00:30:18.163Z,100404.11
2017-12-01T00:32:43.927Z,100409.05
2017-12-01T00:35:09.737Z,100409.41
2017-12-01T00:37:35.582Z,100418.69
2017-12-01T00:40:01.375Z,100418.12
2017-12-01T00:42:27.192Z,100419.37
2017-12-01T00:44:52.987Z,100411.25
2017-12-01T00:47:18.772Z,100421.62
2017-12-01T00:49:44.933Z,100420.80
2017-12-01T00:52:10.741Z,100424.67
2017-12-01T00:54:36.546Z,100433.72
2017-12-01T00:57:02.357Z,100436.47
2017-12-01T00:59:28.219Z,100439.38
2017-12-01T01:01:54.415Z,100443.88
2017-12-01T01:04:20.320Z,100449.66
2017-12-01T01:06:46.162Z,100452.50
2017-12-01T01:09:11.960Z,100453.29
2017-12-01T01:11:37.767Z,100456.19
2017-12-01T01:14:03.588Z,100454.26
2017-12-01T01:16:29.374Z,100456.30
2017-12-01T01:18:55.154Z,100457.73
2017-12-01T01:21:21.307Z,100454.09
2017-12-01T01:23:47.110Z,100460.19
2017-12-01T01:26:12.899Z,100458.06
2017-12-01T01:28:38.695Z,100459.02
2017-12-01T01:31:04.490Z,100459.92
2017-12-01T01:33:30.291Z,100463.63
2017-12-01T01:35:56.089Z,100471.72
2017-12-01T01:38:21.871Z,100468.48
2017-12-01T01:40:47.662Z,100470.19
2017-12-01T01:43:13.718Z,100475.29
2017-12-01T01:45:39.499Z,100476.59
2017-12-01T01:48:05.278Z,100475.80
2017-12-01T01:50:31.088Z,100487.06
2017-12-01T01:52:56.879Z,100493.91
2017-12-01T01:55:22.715Z,100489.55
2017-12-01T01:57:48.515Z,100496.20
2017-12-01T02:00:14.330Z,100494.34
2017-12-01T02:02:40.168Z,100499.84
2017-12-01T02:05:05.978Z,100500.69
2017-12-01T02:07:31.766Z,100507.13
2017-12-01T02:09:57.606Z,100510.59
2017-12-01T02:12:23.403Z,100508.28
2017-12-01T02:14:49.196Z,100517.30
2017-12-01T02:17:15.333Z,100520.50
2017-12-01T02:19:41.151Z,100521.52
2017-12-01T02:22:06.952Z,100520.22
2017-12-01T02:24:32.781Z,100527.62
2017-12-01T02:26:58.579Z,100526.46
2017-12-01T02:29:24.378Z,100523.19
2017-12-01T02:31:50.170Z,100519.70
2017-12-01T02:34:15.979Z,100526.61
2017-12-01T02:36:41.790Z,100530.77
2017-12-01T02:39:08.009Z,100526.23
2017-12-01T02:41:33.882Z,100527.52
2017-12-01T02:43:59.654Z,100533.35
2017-12-01T02:46:25.484Z,100535.22
2017-12-01T02:48:51.288Z,100536.71
2017-12-01T02:51:17.081Z,100543.31
2017-12-01T02:53:42.917Z,100543.61
2017-12-01T02:56:08.722Z,100546.59
2017-12-01T02:58:34.540Z,100545.05
2017-12-01T03:01:00.379Z,100547.53
2017-12-01T03:03:26.359Z,100549.52
2017-12-01T03:05:52.195Z,100545.56
2017-12-01T03:08:18.050Z,100551.64
2017-12-01T03:10:43.867Z,100557.53
2017-12-01T03:13:09.685Z,100563.63
2017-12-01T03:15:35.519Z,100564.07
2017-12-01T03:18:01.311Z,100568.30
2017-12-01T03:20:27.110Z,100564.61
2017-12-01T03:22:52.911Z,100564.59
2017-12-01T03:25:18.734Z,100567.00
2017-12-01T03:27:44.552Z,100576.72
2017-12-01T03:30:10.342Z,100580.00
2017-12-01T03:32:36.157Z,100582.65
2017-12-01T03:35:02.000Z,100583.36
2017-12-01T03:37:27.806Z,100586.01
2017-12-01T03:39:53.614Z,100589.64
2017-12-01T03:42:19.511Z,100594.07
2017-12-01T03:44:45.288Z,100589.72
2017-12-01T03:47:11.095Z,100601.08
2017-12-01T03:49:36.907Z,100602.83
2017-12-01T03:52:02.704Z,100608.06
2017-12-01T03:54:28.781Z,100617.14
2017-12-01T03:56:54.578Z,100617.22
2017-12-01T03:59:20.377Z,100622.16
2017-12-01T04:01:46.183Z,100623.77
2017-12-01T04:04:11.967Z,100624.63
2017-12-01T04:06:37.800Z,100625.06
2017-12-01T04:09:03.614Z,100629.09
2017-12-01T04:11:29.414Z,100635.26
2017-12-01T04:13:55.242Z,100631.62
2017-12-01T04:16:21.033Z,100627.13
2017-12-01T04:18:46.862Z,100628.64
2017-12-01T04:21:12.888Z,100636.95
2017-12-01T04:23:38.680Z,100640.17
2017-12-01T04:26:04.482Z,100642.63
2017-12-01T04:28:30.322Z,100639.34
2017-12-01T04:30:56.143Z,100645.45
2017-12-01T04:33:21.989Z,100653.16
2017-12-01T04:35:47.834Z,100653.31
2017-12-01T04:38:13.662Z,100661.55
2017-12-01T04:40:39.471Z,100667.81
2017-12-01T04:43:05.306Z,100668.78
2017-12-01T04:45:31.098Z,100665.41
2017-12-01T04:47:56.920Z,100670.89
2017-12-01T04:50:22.739Z,100668.61
2017-12-01T04:52:48.539Z,100667.91
2017-12-01T04:55:14.354Z,100674.47
2017-12-01T04:57:40.202Z,100681.95
2017-12-01T05:00:06.006Z,100671.17
2017-12-01T05:02:31.807Z,100680.28
2017-12-01T05:04:57.638Z,100678.75
2017-12-01T05:07:23.442Z,100678.17
2017-12-01T05:09:49.235Z,100676.12
2017-12-01T05:12:15.113Z,100680.72
2017-12-01T05:14:40.902Z,100681.44
2017-12-01T05:17:06.717Z,100685.22
2017-12-01T05:19:32.826Z,100681.16
2017-12-01T05:21:58.640Z,100689.09
2017-12-01T05:24:24.458Z,100692.72
2017-12-01T05:26:50.259Z,100690.83
2017-12-01T05:29:16.060Z,100698.40
2017-12-01T05:31:41.865Z,100695.27
2017-12-01T05:34:07.834Z,100702.77
2017-12-01T05:36:33.661Z,100707.28
2017-12-01T05:38:59.508Z,100704.88
2017-12-01T05:41:25.595Z,100715.98
2017-12-01T05:43:51.402Z,100717.55
2017-12-01T05:46:17.203Z,100713.05
2017-12-01T05:48:43.023Z,100715.95
2017-12-01T05:51:08.837Z,100717.98
2017-12-01T05:53:34.639Z,100721.07
2017-12-01T05:56:00.718Z,100723.40
2017-12-01T05:58:26.522Z,100719.97
2017-12-01T06:00:52.335Z,100722.52
2017-12-01T06:03:18.484Z,100721.92
2017-12-01T06:05:44.300Z,100723.69
2017-12-01T06:08:10.119Z,100723.23
2017-12-01T06:10:36.075Z,100720.86
2017-12-01T06:13:01.903Z,100722.97
2017-12-01T06:15:27.708Z,100720.56
2017-12-01T06:17:54.615Z,100719.69
2017-12-01T06:20:20.434Z,100729.78
2017-12-01T06:22:46.243Z,100730.95
2017-12-01T06:25:12.085Z,100734.90
2017-12-01T06:27:37.917Z,100739.05
2017-12-01T06:30:03.739Z,100747.64
2017-12-01T06:32:29.847Z,100751.12
2017-12-01T06:34:55.649Z,100753.60
2017-12-01T06:37:21.454Z,100755.78
2017-12-01T06:39:47.291Z,100769.63
2017-12-01T06:42:13.179Z,100768.53
2017-12-01T06:44:38.984Z,100774.08
2017-12-01T06:47:04.807Z,100772.11
2017-12-01T06:49:30.610Z,100773.84
2017-12-01T06:51:56.402Z,100776.14
2017-12-01T06:54:22.210Z,100777.13
2017-12-01T06:56:48.011Z,100783.09
2017-12-01T06:59:13.809Z,100785.96
2017-12-01T07:01:39.639Z,100784.36
2017-12-01T07:04:05.435Z,100798.31
2017-12-01T07:09:04.005Z,100808.42
2017-12-01T07:11:30.092Z,100813.84
2017-12-01T07:13:55.893Z,100812.73
2017-12-01T07:16:21.675Z,100817.31
2017-12-01T07:18:47.496Z,100817.25
2017-12-01T07:21:13.280Z,100820.53
2017-12-01T07:23:39.076Z,100814.84
2017-12-01T07:26:17.176Z,100822.83
2017-12-01T07:28:42.943Z,100831.91
2017-12-01T07:31:08.727Z,100832.10
2017-12-01T07:33:34.848Z,100832.37
2017-12-01T07:36:00.650Z,100836.38
2017-12-01T07:38:26.442Z,100837.62
2017-12-01T07:40:53.106Z,100849.20
2017-12-01T07:43:18.904Z,100850.84
2017-12-01T07:45:44.709Z,100846.03
2017-12-01T07:48:10.540Z,100859.58
2017-12-01T07:50:36.347Z,100864.96
2017-12-01T07:53:02.159Z,100865.09
2017-12-01T07:55:28.088Z,100865.83
2017-12-01T07:57:53.904Z,100874.58
2017-12-01T08:00:19.737Z,100873.14
2017-12-01T08:02:45.541Z,100878.77
2017-12-01T08:05:11.352Z,100878.72
2017-12-01T08:07:37.165Z,100884.03
2017-12-01T08:10:03.029Z,100885.91
2017-12-01T08:12:28.838Z,100891.91
2017-12-01T08:14:55.795Z,100898.16
2017-12-01T08:17:28.887Z,100906.61
2017-12-01T08:19:54.723Z,100912.98
2017-12-01T08:22:32.900Z,100917.95
2017-12-01T08:25:11.299Z,100918.27
2017-12-01T08:27:37.101Z,100921.93
2017-12-01T08:30:02.934Z,100923.02
2017-12-01T08:32:28.747Z,100928.89
2017-12-01T08:34:54.528Z,100933.05
2017-12-01T08:37:20.631Z,100932.91
2017-12-01T08:39:46.431Z,100930.75
2017-12-01T08:42:12.246Z,100937.06
2017-12-01T08:44:38.064Z,100934.60
2017-12-01T08:47:03.871Z,100938.50
2017-12-01T08:49:29.668Z,100947.23
2017-12-01T08:51:56.046Z,100954.48
2017-12-01T08:54:22.530Z,100952.61
2017-12-01T08:56:48.332Z,100958.91
2017-12-01T08:59:14.138Z,100965.22
2017-12-01T09:01:40.023Z,100963.49
2017-12-01T09:04:06.143Z,100963.50
2017-12-01T09:06:32.194Z,100970.92
2017-12-01T09:08:58.701Z,100966.88
2017-12-01T09:11:24.483Z,100972.53
2017-12-01T09:13:50.695Z,100980.44
2017-12-01T09:16:17.270Z,100989.57
2017-12-01T09:18:44.051Z,100993.28
2017-12-01T09:21:10.654Z,100997.80
2017-12-01T09:23:36.471Z,100999.92
2017-12-01T09:26:03.050Z,101002.08
2017-12-01T09:28:28.911Z,100996.51
2017-12-01T09:30:54.729Z,100998.15
2017-12-01T09:33:20.539Z,101002.81
2017-12-01T09:35:46.322Z,101004.30
2017-12-01T09:38:12.135Z,101000.27
2017-12-01T09:40:37.959Z,101010.88
2017-12-01T09:43:03.783Z,101010.20
2017-12-01T09:45:29.584Z,101018.03
2017-12-01T09:47:55.714Z,101016.13
2017-12-01T09:50:21.514Z,101019.78
2017-12-01T09:52:47.334Z,101018.20
2017-12-01T09:55:13.984Z,101032.72
2017-12-01T09:57:39.767Z,101037.28
2017-12-01T10:00:05.591Z,101031.20
2017-12-01T10:02:31.402Z,101034.42
2017-12-01T10:04:57.201Z,101038.70
2017-12-01T10:07:22.997Z,101043.35
2017-12-01T10:09:48.813Z,101042.55
2017-12-01T10:12:14.609Z,101042.75
2017-12-01T10:14:40.395Z,101048.62
2017-12-01T10:17:06.251Z,101040.64
2017-12-01T10:19:32.054Z,101046.46
2017-12-01T10:21:57.843Z,101031.95
2017-12-01T10:24:23.911Z,101046.44
2017-12-01T10:26:49.692Z,101041.78
2017-12-01T10:29:15.479Z,101039.66
2017-12-01T10:31:41.300Z,101043.28
2017-12-01T10:34:07.096Z,101042.72
2017-12-01T10:36:32.887Z,101046.50
2017-12-01T10:38:58.698Z,101037.72
2017-12-01T10:41:24.494Z,101045.26
2017-12-01T10:43:50.285Z,101041.17
2017-12-01T10:46:16.228Z,101043.95
2017-12-01T10:48:42.777Z,101043.15
2017-12-01T10:51:08.921Z,101048.38
2017-12-01T10:53:34.967Z,101049.54
2017-12-01T10:56:02.210Z,101057.05
2017-12-01T10:58:28.107Z,101061.23
2017-12-01T11:01:01.330Z,101061.73
2017-12-01T11:03:27.779Z,101060.13
2017-12-01T11:05:54.132Z,101061.88
2017-12-01T11:08:20.237Z,101061.44
2017-12-01T11:10:46.083Z,101060.34
2017-12-01T11:13:11.938Z,101071.64
2017-12-01T11:15:37.966Z,101066.58
2017-12-01T11:18:04.461Z,101068.22
2017-12-01T11:20:30.979Z,101069.33
2017-12-01T11:22:57.079Z,101076.19
2017-12-01T11:25:22.955Z,101076.03
2017-12-01T11:27:48.774Z,101075.82
2017-12-01T11:30:14.576Z,101078.73
2017-12-01T11:32:40.352Z,101081.89
2017-12-01T11:35:06.165Z,101083.34
2017-12-01T11:37:31.960Z,101085.88
2017-12-01T11:39:58.436Z,101088.73
2017-12-01T11:42:24.476Z,101093.69
2017-12-01T11:44:50.336Z,101092.31
2017-12-01T11:47:16.103Z,101094.50
2017-12-01T11:49:41.914Z,101099.66
2017-12-01T11:52:08.406Z,101094.50
2017-12-01T11:54:34.792Z,101100.80
2017-12-01T11:57:00.861Z,101100.36
2017-12-01T11:59:26.733Z,101102.41
2017-12-01T12:01:52.543Z,101104.72
2017-12-01T12:04:19.010Z,101101.09
2017-12-01T12:06:45.576Z,101107.50
2017-12-01T12:09:11.927Z,101110.26
2017-12-01T12:11:38.657Z,101105.66
2017-12-01T12:14:04.656Z,101104.66
2017-12-01T12:16:30.624Z,101099.48
2017-12-01T12:18:56.838Z,101105.83
2017-12-01T12:21:22.873Z,101110.95
2017-12-01T12:23:49.366Z,101112.13
2017-12-01T12:26:15.820Z,101111.96
2017-12-01T12:28:41.969Z,101113.91
2017-12-01T12:31:07.857Z,101110.05
2017-12-01T12:33:33.667Z,101110.48
2017-12-01T12:35:59.468Z,101116.42
2017-12-01T12:38:25.982Z,101109.94
2017-12-01T12:40:52.460Z,101116.64
2017-12-01T12:43:18.914Z,101106.28
2017-12-01T12:45:45.199Z,101109.05
2017-12-01T12:48:11.082Z,101114.65
2017-12-01T12:50:36.936Z,101117.91
2017-12-01T12:53:02.747Z,101115.91
2017-12-01T12:55:29.321Z,101120.80
2017-12-01T12:57:55.888Z,101122.64
2017-12-01T13:00:22.031Z,101128.30
2017-12-01T13:02:47.886Z,101135.39
2017-12-01T13:05:13.704Z,101140.75
2017-12-01T13:07:39.503Z,101137.03
2017-12-01T13:10:05.836Z,101137.90
2017-12-01T13:12:31.875Z,101138.84
2017-12-01T13:14:57.743Z,101142.94
2017-12-01T13:17:23.555Z,101140.74
2017-12-01T13:19:49.553Z,101148.94
2017-12-01T13:22:15.358Z,101130.97
2017-12-01T13:24:42.030Z,101146.30
2017-12-01T13:27:07.899Z,101150.17
2017-12-01T13:29:33.721Z,101149.05
2017-12-01T13:31:59.532Z,101150.53
2017-12-01T13:34:26.874Z,101152.50
2017-12-01T13:36:53.039Z,101150.39
2017-12-01T13:39:18.842Z,101155.36
2017-12-01T13:41:45.291Z,101154.06
2017-12-01T13:44:11.083Z,101162.10
2017-12-01T13:46:37.550Z,101164.29
2017-12-01T13:49:03.422Z,101169.32
2017-12-01T13:51:30.367Z,101170.48
2017-12-01T13:53:56.951Z,101175.31
2017-12-01T13:56:23.370Z,101180.64
2017-12-01T13:58:49.544Z,101187.13
2017-12-01T14:01:16.234Z,101184.50
2017-12-01T14:03:42.503Z,101183.77
2017-12-01T14:06:09.348Z,101183.22
2017-12-01T14:08:35.987Z,101195.63
2017-12-01T14:11:01.784Z,101197.38
2017-12-01T14:13:27.634Z,101204.66
2017-12-01T14:15:53.969Z,101203.66
2017-12-01T14:18:20.364Z,101212.04
2017-12-01T14:20:46.900Z,101216.20
2017-12-01T14:23:13.487Z,101226.00
2017-12-01T14:25:39.888Z,101231.17
2017-12-01T14:28:05.949Z,101239.52
2017-12-01T14:30:31.850Z,101245.80
2017-12-01T14:32:57.635Z,101245.16
2017-12-01T14:35:23.438Z,101250.56
2017-12-01T14:37:49.855Z,101250.13
2017-12-01T14:40:16.044Z,101253.72
2017-12-01T14:42:42.028Z,101258.09
2017-12-01T14:45:08.244Z,101256.17
2017-12-01T14:47:34.653Z,101258.09
2017-12-01T14:50:00.540Z,101266.64
2017-12-01T14:52:27.399Z,101274.09
2017-12-01T14:54:53.721Z,101277.31
2017-12-01T14:57:19.603Z,101277.66
2017-12-01T14:59:45.672Z,101283.39
2017-12-01T15:02:11.463Z,101279.93
2017-12-01T15:04:37.562Z,101284.80
2017-12-01T15:07:04.063Z,101292.12
2017-12-01T15:09:30.491Z,101290.01
2017-12-01T15:11:57.006Z,101292.22
2017-12-01T15:14:23.607Z,101298.06
2017-12-01T15:16:50.109Z,101303.23
2017-12-01T15:19:16.279Z,101303.10
2017-12-01T15:21:42.137Z,101311.56
2017-12-01T15:24:07.958Z,101309.52
2017-12-01T15:26:33.780Z,101309.95
2017-12-01T15:28:59.988Z,101309.01
2017-12-01T15:31:26.655Z,101319.62
2017-12-01T15:33:53.260Z,101326.46
2017-12-01T15:36:19.771Z,101328.32
2017-12-01T15:38:46.147Z,101326.58
2017-12-01T15:41:12.316Z,101333.66
2017-12-01T15:43:38.179Z,101339.00
2017-12-01T15:46:03.967Z,101335.95
2017-12-01T15:48:29.973Z,101339.11
2017-12-01T15:50:56.148Z,101341.19
2017-12-01T15:53:22.620Z,101345.58
2017-12-01T15:55:49.399Z,101354.78
2017-12-01T15:58:15.846Z,101350.31
2017-12-01T16:00:42.357Z,101355.95
2017-12-01T16:03:08.675Z,101357.76
2017-12-01T16:05:34.749Z,101360.80
2017-12-01T16:08:00.635Z,101364.88
2017-12-01T16:10:26.460Z,101368.13
2017-12-01T16:12:52.431Z,101369.75
2017-12-01T16:15:18.856Z,101366.80
2017-12-01T16:17:45.313Z,101373.01
2017-12-01T16:20:11.794Z,101372.83
2017-12-01T16:22:38.004Z,101375.19
2017-12-01T16:25:03.852Z,101374.52
2017-12-01T16:27:29.668Z,101376.77
2017-12-01T16:29:55.663Z,101380.77
2017-12-01T16:32:22.231Z,101378.30
2017-12-01T16:34:48.022Z,101377.16
2017-12-01T16:37:14.441Z,101389.02
2017-12-01T16:39:40.392Z,101387.41
2017-12-01T16:42:06.250Z,101397.74
2017-12-01T16:44:32.089Z,101392.89
2017-12-01T16:46:57.882Z,101400.52
2017-12-01T16:49:23.722Z,101403.94
2017-12-01T16:51:49.523Z,101404.19
2017-12-01T16:54:15.331Z,101413.89
2017-12-01T16:56:41.363Z,101413.14
2017-12-01T16:59:07.192Z,101416.74
2017-12-01T17:01:33.010Z,101419.84
2017-12-01T17:03:58.855Z,101411.41
2017-12-01T17:06:24.761Z,101411.41
2017-12-01T17:08:50.591Z,101415.69
2017-12-01T17:11:16.428Z,101416.36
2017-12-01T17:13:42.247Z,101414.94
2017-12-01T17:16:08.038Z,101419.51
2017-12-01T17:18:33.866Z,101416.28
2017-12-01T17:20:59.686Z,101420.97
2017-12-01T17:23:25.494Z,101422.09
2017-12-01T17:25:51.602Z,101427.22
2017-12-01T17:28:17.410Z,101434.48
2017-12-01T17:30:43.202Z,101432.36
2017-12-01T17:33:09.006Z,101437.56
2017-12-01T17:35:35.086Z,101436.30
2017-12-01T17:38:00.899Z,101440.00
2017-12-01T17:40:26.702Z,101444.86
2017-12-01T17:42:52.502Z,101444.23
2017-12-01T17:45:18.337Z,101457.05
2017-12-01T17:47:44.133Z,101456.81
2017-12-01T17:50:09.955Z,101465.18
2017-12-01T17:52:35.774Z,101463.16
2017-12-01T17:55:01.606Z,101474.77
2017-12-01T17:57:27.426Z,101473.52
2017-12-01T17:59:53.816Z,101483.00
2017-12-01T18:02:19.602Z,101466.38
2017-12-01T18:04:45.718Z,101492.11
2017-12-01T18:07:11.507Z,101462.00
2017-12-01T18:09:37.314Z,101501.63
2017-12-01T18:12:03.432Z,101495.66
2017-12-01T18:14:29.214Z,101502.70
2017-12-01T18:16:55.003Z,101500.61
2017-12-01T18:19:20.814Z,101501.08
2017-12-01T18:21:46.627Z,101500.53
2017-12-01T18:24:12.418Z,101505.23
2017-12-01T18:26:38.285Z,101521.66
2017-12-01T18:29:04.078Z,101520.12
2017-12-01T18:31:29.862Z,101524.57
2017-12-01T18:33:55.690Z,101526.08
2017-12-01T18:36:21.509Z,101528.15
2017-12-01T18:38:47.335Z,101528.77
2017-12-01T18:41:13.154Z,101522.44
2017-12-01T18:43:38.951Z,101526.48
2017-12-01T18:46:04.751Z,101529.16
2017-12-01T18:48:30.560Z,101528.08
2017-12-01T18:50:56.370Z,101535.66
2017-12-01T18:53:22.186Z,101536.68
2017-12-01T18:55:48.029Z,101540.33
2017-12-01T18:58:13.831Z,101547.30
2017-12-01T19:00:39.683Z,101552.95
2017-12-01T19:03:05.591Z,101549.92
2017-12-01T19:05:31.394Z,101547.84
2017-12-01T19:07:57.231Z,101555.24
2017-12-01T19:10:23.215Z,101558.86
2017-12-01T19:12:49.036Z,101557.21
2017-12-01T19:15:14.841Z,101562.61
2017-12-01T19:17:40.712Z,101559.66
2017-12-01T19:20:06.530Z,101560.05
2017-12-01T19:22:32.346Z,101564.64
2017-12-01T19:24:58.170Z,101563.38
2017-12-01T19:27:24.004Z,101565.66
2017-12-01T19:29:49.909Z,101570.30
2017-12-01T19:32:15.802Z,101573.30
2017-12-01T19:34:41.666Z,101579.86
2017-12-01T19:37:07.556Z,101582.99
2017-12-01T19:39:33.417Z,101587.45
2017-12-01T19:41:59.250Z,101584.61
2017-12-01T19:44:25.137Z,101587.02
2017-12-01T19:46:50.935Z,101592.55
2017-12-01T19:49:16.792Z,101596.78
2017-12-01T19:51:42.694Z,101599.66
2017-12-01T19:54:08.519Z,101602.08
2017-12-01T19:56:34.370Z,101600.52
2017-12-01T19:59:00.252Z,101598.78
2017-12-01T20:01:26.099Z,101606.95
2017-12-01T20:03:51.960Z,101607.94
2017-12-01T20:06:17.778Z,101616.52
2017-12-01T20:08:43.575Z,101614.19
2017-12-01T20:11:09.793Z,101623.52
2017-12-01T20:13:35.654Z,101615.23
2017-12-01T20:16:01.519Z,101618.70
2017-12-01T20:18:27.401Z,101616.34
2017-12-01T20:20:53.273Z,101613.70
2017-12-01T20:23:19.142Z,101624.33
2017-12-01T20:25:45.028Z,101625.63
2017-12-01T20:28:10.917Z,101629.20
2017-12-01T20:30:36.800Z,101632.23
2017-12-01T20:33:02.694Z,101633.24
2017-12-01T20:35:28.580Z,101622.24
2017-12-01T20:37:54.654Z,101641.08
2017-12-01T20:40:20.539Z,101647.96
2017-12-01T20:42:46.387Z,101646.98
2017-12-01T20:45:12.255Z,101655.01
2017-12-01T20:47:38.136Z,101660.69
2017-12-01T20:50:03.971Z,101661.36
2017-12-01T20:52:29.831Z,101664.91
2017-12-01T20:54:55.650Z,101652.73
2017-12-01T20:57:21.495Z,101657.52
2017-12-01T20:59:47.399Z,101658.02
2017-12-01T21:02:13.230Z,101661.93
2017-12-01T21:04:39.046Z,101656.23
2017-12-01T21:07:04.922Z,101661.08
2017-12-01T21:09:30.736Z,101664.08
2017-12-01T21:11:56.564Z,101665.67
2017-12-01T21:14:22.460Z,101668.88
2017-12-01T21:16:48.279Z,101670.72
2017-12-01T21:19:14.082Z,101663.64
2017-12-01T21:21:40.197Z,101671.18
2017-12-01T21:24:06.021Z,101669.78
2017-12-01T21:26:31.876Z,101667.80
2017-12-01T21:28:57.703Z,101666.19
2017-12-01T21:31:23.502Z,101668.55
2017-12-01T21:33:49.310Z,101671.04
2017-12-01T21:36:15.139Z,101672.78
2017-12-01T21:38:40.944Z,101667.66
2017-12-01T21:41:06.739Z,101665.02
2017-12-01T21:43:32.570Z,101673.86
2017-12-01T21:45:58.391Z,101678.69
2017-12-01T21:48:24.201Z,101677.04
2017-12-01T21:50:50.050Z,101674.14
2017-12-01T21:53:15.830Z,101680.70
2017-12-01T21:55:41.619Z,101680.05
2017-12-01T21:58:07.426Z,101684.70
2017-12-01T22:00:33.225Z,101685.72
2017-12-01T22:02:59.022Z,101686.34
2017-12-01T22:05:24.826Z,101694.91
2017-12-01T22:07:50.623Z,101697.89
2017-12-01T22:10:16.415Z,101701.37
2017-12-01T22:12:42.310Z,101705.02
2017-12-01T22:15:08.111Z,101712.19
2017-12-01T22:17:33.914Z,101700.02
2017-12-01T22:19:59.940Z,101702.78
2017-12-01T22:22:25.743Z,101702.63
2017-12-01T22:24:51.540Z,101708.00
2017-12-01T22:27:17.411Z,101711.56
2017-12-01T22:29:43.206Z,101718.97
2017-12-01T22:32:09.017Z,101723.01
2017-12-01T22:34:34.822Z,101719.86
2017-12-01T22:37:00.594Z,101715.79
2017-12-01T22:39:26.399Z,101728.11
2017-12-01T22:41:52.492Z,101715.91
2017-12-01T22:44:18.273Z,101725.16
2017-12-01T22:46:44.078Z,101723.80
2017-12-01T22:49:10.134Z,101729.46
2017-12-01T22:51:35.923Z,101725.47
2017-12-01T22:54:01.712Z,101731.23
2017-12-01T22:56:27.904Z,101734.91
2017-12-01T22:58:53.677Z,101732.77
2017-12-01T23:01:19.479Z,101740.38
2017-12-01T23:03:45.564Z,101738.00
2017-12-01T23:06:11.397Z,101738.21
2017-12-01T23:08:37.151Z,101740.39
2017-12-01T23:11:02.991Z,101734.86
2017-12-01T23:13:29.049Z,101743.59
2017-12-01T23:15:54.846Z,101744.30
2017-12-01T23:18:20.663Z,101748.30
2017-12-01T23:20:46.457Z,101750.60
2017-12-01T23:23:12.245Z,101753.78
2017-12-01T23:25:38.034Z,101752.19
2017-12-01T23:28:03.830Z,101765.00
2017-12-01T23:30:29.881Z,101767.70
2017-12-01T23:32:55.646Z,101766.64
2017-12-01T23:35:21.433Z,101766.25
2017-12-01T23:37:47.224Z,101764.72
2017-12-01T23:40:13.007Z,101766.86
2017-12-01T23:42:38.800Z,101760.77
2017-12-01T23:45:04.637Z,101760.05
2017-12-01T23:47:30.434Z,101761.69
2017-12-01T23:49:56.227Z,101771.27
2017-12-01T23:52:22.031Z,101773.97
2017-12-01T23:54:47.854Z,101773.76
2017-12-01T23:57:13.826Z,101774.51
2017-12-01T23:59:39.638Z,101779.73
